Cedar Canyon, Indiana
Current Conditions -  °F | °C
As of 7:35 AM on Tuesday 27 Jan 2015 (Local Time) from KGWB Reporting Station
Clear Clear  
Wind Chill: 18°   Ceiling: Unl
Heat Index: 18°   Visibility: 10mi
Dew Point: 10°   Wind: 3mph
Humidity: 73%   Direction: 60°ENE
Pressure: 30.04"   Gusts: NA
Location:  41.2326°N, 85.0459°W
Report Text: KGWB 271235Z AUTO 06003KT 10SM CLR M08/M12 A3004 RMK AO2
Loading
Personal Weather Stations






























Interactive Weather Map New forecast layout! Learn more

10-Day Weather Forecast

Advertisements
Track Severe Weather on mobile